Overview Statistics Trail Chart Weather Telemetry Raw packets
 

This is the latest recevied weather packets stored in our database for station/object Dunnningn. If no packets are shown the sender has not sent any weather packets the latest 10 day(s).

<< 14 15 16 17 18 19 >>
Time Temp. Humidity Pressure Rain* Wind** Luminosity Snow
1787916730 19.44° C 83% 1012.1 hPa 19.56 mm - - -
1787914930 19.44° C 88% 1011.8 hPa 19.56 mm - - -
1787913130 18.33° C 93% 1011.7 hPa 19.56 mm - - -
1787911331 17.22° C 92% 1011 hPa 19.56 mm - - -
1787909530 17.22° C 92% 1011.3 hPa 19.56 mm - - -
1787907730 17.22° C 91% 1011.3 hPa 19.56 mm - - -
1787905930 17.22° C 92% 1011.9 hPa 19.3 mm - - -
1787904130 17.78° C 89% 1010.7 hPa 12.7 mm - - -
1787902333 19.44° C 87% 1008.5 hPa 7.11 mm - - -
1787900530 20° C 82% 1009.9 hPa 0 mm - - -
1787898729 19.44° C 83% 1009.4 hPa 0 mm - - -
1787896930 19.44° C 84% 1010.2 hPa 0 mm - - -
1787895130 19.44° C 83% 1010.4 hPa 0 mm - - -
1787893329 19.44° C 82% 1010.4 hPa 0 mm - - -
1787891530 19.44° C 81% 1009.7 hPa 0 mm - - -
1787889733 19.44° C 81% 1010.1 hPa 0 mm - - -
1787887929 19.44° C 82% 1009.5 hPa 0 mm - - -
1787886129 19.44° C 81% 1009.2 hPa 0 mm - - -
1787884330 19.44° C 81% 1009.5 hPa 0 mm - - -
1787882530 20° C 78% 1009.7 hPa 0 mm - - -
1787880729 20.56° C 77% 1010 hPa 0 mm - - -
1787878929 21.11° C 76% 1010.3 hPa 0 mm - - -
1787877131 21.11° C 76% 1010 hPa 0 mm - - -
1787875331 21.67° C 76% 1010.1 hPa 0 mm - - -
1787873530 21.67° C 74% 1009.8 hPa 0 mm - - -

* Rain since midnight (hover to see other rain measurements)
** Current wind speed in m/s (hover to see current wind gust speed)